Time;durP1;ratioP1;P1;durP2;ratioP2;P2;SDS_P1;SDS_P2;PMS_P1;PMS_P2;Temp;Humidity;BMP_temperature;BMP_pressure;BME280_temperature;BME280_humidity;BME280_pressure;Samples;Min_cycle;Max_cycle;Signal;HPM_P1;HPM_P2
2022/04/17 00:00:06;;;;;;;7.60;4.30;;;;;;;7.60;68.25;103049.03;4966146;28;20097;-64
2022/04/17 00:02:31;;;;;;;7.65;3.80;;;;;;;7.60;67.76;103046.38;4982822;28;20030;-63
2022/04/17 00:04:57;;;;;;;8.82;4.03;;;;;;;7.57;67.87;103044.63;4964255;28;20038;-63
2022/04/17 00:07:22;;;;;;;9.38;4.53;;;;;;;7.51;68.26;103031.41;4964732;28;20401;-63
2022/04/17 00:09:48;;;;;;;7.85;4.00;;;;;;;7.47;67.94;103035.78;4966647;28;20881;-63
2022/04/17 00:12:13;;;;;;;10.43;4.43;;;;;;;7.50;67.55;103032.28;4964679;28;20038;-64
2022/04/17 00:14:39;;;;;;;6.85;4.20;;;;;;;7.51;67.54;103034.06;4981817;28;20393;-64
2022/04/17 00:17:04;;;;;;;10.70;4.63;;;;;;;7.57;66.77;103025.25;4981740;28;20034;-63
2022/04/17 00:19:29;;;;;;;6.20;3.90;;;;;;;7.54;66.51;103032.31;4982839;28;20046;-63
2022/04/17 00:21:55;;;;;;;7.70;4.00;;;;;;;7.47;66.98;103022.59;4963855;28;20038;-63
2022/04/17 00:24:20;;;;;;;5.78;3.70;;;;;;;7.49;66.21;103017.34;4964077;28;20030;-64
2022/04/17 00:26:46;;;;;;;7.78;3.97;;;;;;;7.50;66.18;103019.97;4964672;28;20038;-64
2022/04/17 00:29:12;;;;;;;7.70;4.03;;;;;;;7.49;66.21;103012.97;4964542;28;20163;-64
2022/04/17 00:31:37;;;;;;;7.85;3.85;;;;;;;7.49;65.87;103017.34;4975741;28;20046;-63
2022/04/17 00:34:03;;;;;;;7.60;4.18;;;;;;;7.50;65.90;103013.81;4982277;28;20026;-62
2022/04/17 00:36:28;;;;;;;7.63;4.07;;;;;;;7.51;65.20;103010.31;4981602;28;20046;-63
2022/04/17 00:38:54;;;;;;;8.18;3.95;;;;;;;7.50;65.54;103006.78;4964441;28;20073;-63
2022/04/17 00:41:19;;;;;;;6.30;4.00;;;;;;;7.59;63.08;103008.56;4964452;28;21841;-63
2022/04/17 00:43:48;;;;;;;6.75;4.00;;;;;;;7.62;63.00;103005.06;4982252;28;20084;-63
2022/04/17 00:46:14;;;;;;;11.68;4.43;;;;;;;7.60;64.50;103007.69;4983437;28;20552;-63
2022/04/17 00:48:40;;;;;;;7.22;4.03;;;;;;;7.60;64.09;103002.44;4985348;28;20042;-62
2022/04/17 00:51:07;;;;;;;6.18;4.07;;;;;;;7.58;64.36;103009.44;4985745;28;20053;-63
2022/04/17 00:53:34;;;;;;;12.32;4.30;;;;;;;7.52;65.15;102996.28;4985248;28;20116;-63
2022/04/17 00:56:00;;;;;;;10.57;4.47;;;;;;;7.47;65.59;103009.44;4985127;28;20057;-64
2022/04/17 00:58:28;;;;;;;8.30;4.22;;;;;;;7.43;65.35;102998.84;4968043;28;20161;-64
2022/04/17 01:00:53;;;;;;;7.00;4.38;;;;;;;7.38;65.79;103001.50;4985584;28;20054;-64
2022/04/17 01:03:19;;;;;;;6.38;4.38;;;;;;;7.36;65.67;103008.50;4967004;28;20113;-64
2022/04/17 01:05:46;;;;;;;7.55;4.53;;;;;;;7.32;65.77;103004.09;4985147;28;20057;-64
2022/04/17 01:08:12;;;;;;;7.95;4.65;;;;;;;7.27;65.61;103000.56;4966938;28;20392;-64
2022/04/17 01:10:39;;;;;;;8.05;4.78;;;;;;;7.19;66.38;102996.13;4985440;28;20022;-64
2022/04/17 01:13:05;;;;;;;6.95;4.47;;;;;;;7.11;66.89;102995.25;4985022;28;20058;-64
2022/04/17 01:15:30;;;;;;;7.40;4.60;;;;;;;7.05;67.91;102998.72;4951240;28;20073;-63
2022/04/17 01:17:56;;;;;;;7.13;4.78;;;;;;;7.00;68.13;102986.41;4984237;28;20034;-63
2022/04/17 01:20:22;;;;;;;8.93;5.07;;;;;;;7.01;68.13;102988.19;4984751;28;20026;-63
2022/04/17 01:22:49;;;;;;;8.07;5.10;;;;;;;6.93;69.31;102982.88;4985080;28;20034;-64
2022/04/17 01:28:00;;;;;;;7.22;4.75;;;;;;;6.87;69.29;102988.97;4969995;28;20044;-62
2022/04/17 01:30:26;;;;;;;9.35;5.25;;;;;;;6.87;69.30;102986.34;4982932;28;20039;-63
2022/04/17 01:32:51;;;;;;;7.13;4.90;;;;;;;6.85;69.25;102980.19;4985351;28;20556;-64
2022/04/17 01:35:17;;;;;;;8.15;5.45;;;;;;;6.84;70.21;102990.69;4984596;28;20401;-64
2022/04/17 01:37:46;;;;;;;12.88;5.53;;;;;;;6.85;69.82;102982.84;4966680;28;20065;-64
2022/04/17 01:40:12;;;;;;;7.93;5.43;;;;;;;6.84;68.86;102988.97;4968041;28;20566;-64
2022/04/17 01:42:37;;;;;;;8.32;5.15;;;;;;;6.82;69.66;102982.81;4984137;28;20031;-62
2022/04/17 01:45:03;;;;;;;10.15;5.78;;;;;;;6.85;68.45;102982.84;4966766;28;20034;-64
2022/04/17 01:47:30;;;;;;;9.43;5.60;;;;;;;6.82;69.54;102982.81;4966639;28;20097;-64
2022/04/17 01:49:55;;;;;;;9.10;5.50;;;;;;;6.78;69.97;102982.75;4983694;28;20114;-64
2022/04/17 01:52:21;;;;;;;10.25;5.65;;;;;;;6.70;70.21;102982.72;4984328;28;20107;-64
2022/04/17 01:54:46;;;;;;;9.20;5.32;;;;;;;6.67;70.36;102986.22;4966477;28;20030;-64
2022/04/17 01:57:11;;;;;;;14.18;5.70;;;;;;;6.71;69.94;102984.50;4982900;28;20058;-64
2022/04/17 01:59:37;;;;;;;11.23;6.45;;;;;;;6.73;69.48;102988.03;4961373;28;20076;-62
2022/04/17 02:02:02;;;;;;;8.82;5.53;;;;;;;6.65;70.46;102980.09;4966348;28;21915;-63
2022/04/17 02:04:32;;;;;;;9.93;5.90;;;;;;;6.59;70.24;102982.66;4966468;28;20057;-63
2022/04/17 02:06:57;;;;;;;9.98;6.18;;;;;;;6.61;69.53;102975.69;4983891;28;20112;-63
2022/04/17 02:09:23;;;;;;;8.95;5.57;;;;;;;6.60;69.69;102981.81;4983585;28;20112;-64
2022/04/17 02:11:48;;;;;;;8.65;6.00;;;;;;;6.55;71.03;102979.13;4984130;28;20030;-64
2022/04/17 02:14:14;;;;;;;12.65;6.68;;;;;;;6.55;70.53;102973.88;4983517;28;21519;-63
2022/04/17 02:16:40;;;;;;;9.18;6.30;;;;;;;6.55;71.01;102970.38;4984079;28;20034;-63
2022/04/17 02:19:05;;;;;;;9.98;6.10;;;;;;;6.61;69.72;102967.78;4983779;28;20038;-63
2022/04/17 02:21:31;;;;;;;9.85;6.43;;;;;;;6.65;69.40;102963.38;4983604;28;20030;-63
2022/04/17 02:23:58;;;;;;;9.98;6.07;;;;;;;6.65;68.63;102966.91;4964337;28;20038;-64
2022/04/17 02:26:24;;;;;;;11.23;6.15;;;;;;;6.68;67.97;102966.06;4983911;28;20497;-64
2022/04/17 02:28:49;;;;;;;10.57;5.97;;;;;;;6.67;67.43;102962.53;4983993;28;20129;-64
2022/04/17 02:31:17;;;;;;;11.50;6.65;;;;;;;6.68;67.67;102973.94;4965990;28;20513;-64
2022/04/17 02:33:42;;;;;;;9.77;6.38;;;;;;;6.67;67.35;102959.03;4965590;28;20162;-64
2022/04/17 02:36:07;;;;;;;9.57;6.28;;;;;;;6.68;66.72;102955.53;4983934;28;20137;-64
2022/04/17 02:38:33;;;;;;;10.25;6.55;;;;;;;6.66;66.50;102954.63;4965765;28;20073;-65
2022/04/17 02:40:58;;;;;;;10.50;6.53;;;;;;;6.64;66.76;102959.88;4983715;28;20051;-64
2022/04/17 02:43:24;;;;;;;9.52;6.38;;;;;;;6.62;66.03;102958.97;4951600;28;20038;-64
2022/04/17 02:45:53;;;;;;;10.70;6.95;;;;;;;6.61;65.91;102959.88;4965056;28;20027;-64
2022/04/17 02:48:19;;;;;;;11.73;6.78;;;;;;;6.59;65.73;102958.97;4983362;28;20865;-64
2022/04/17 02:50:45;;;;;;;10.18;6.70;;;;;;;6.55;65.07;102952.81;4983128;28;20041;-65
2022/04/17 02:53:11;;;;;;;11.52;6.38;;;;;;;6.52;65.58;102950.16;4983198;28;20038;-64
2022/04/17 02:55:37;;;;;;;11.73;6.85;;;;;;;6.49;65.23;102944.00;4965892;28;20110;-64
2022/04/17 02:58:02;;;;;;;12.52;6.75;;;;;;;6.44;65.17;102943.97;4982936;28;20113;-65
2022/04/17 03:00:27;;;;;;;12.35;7.25;;;;;;;6.37;65.75;102944.81;4983358;28;20062;-65
2022/04/17 03:05:37;;;;;;;12.15;6.85;;;;;;;6.30;66.29;102938.59;4983239;28;20041;-65
2022/04/17 03:08:10;;;;;;;12.20;7.00;;;;;;;6.23;66.51;102935.06;4980625;28;20042;-64
2022/04/17 03:10:40;;;;;;;10.40;6.80;;;;;;;6.12;67.64;102939.34;4982980;28;20409;-64
2022/04/17 03:13:06;;;;;;;12.52;6.80;;;;;;;6.06;67.65;102940.19;4965155;28;20076;-63
2022/04/17 03:15:32;;;;;;;10.88;6.65;;;;;;;6.02;68.61;102941.06;4982779;28;20046;-63
2022/04/17 03:17:59;;;;;;;10.50;6.75;;;;;;;5.91;69.60;102932.16;4982767;28;20030;-65
2022/04/17 03:20:25;;;;;;;14.07;7.72;;;;;;;5.79;70.25;102939.94;4982040;28;20034;-64
2022/04/17 03:22:51;;;;;;;11.57;7.60;;;;;;;5.71;71.24;102934.59;4965446;28;20975;-64
2022/04/17 03:25:17;;;;;;;10.82;7.00;;;;;;;5.68;71.68;102934.59;4982289;28;20746;-64
2022/04/17 03:27:45;;;;;;;13.23;7.63;;;;;;;5.65;72.89;102940.69;4982458;28;20038;-65
2022/04/17 03:30:10;;;;;;;10.90;7.30;;;;;;;5.64;71.33;102927.50;4982703;28;20034;-64
2022/04/17 03:32:36;;;;;;;13.00;7.50;;;;;;;5.56;72.12;102932.69;4982397;28;20034;-64
2022/04/17 03:35:02;;;;;;;11.93;7.40;;;;;;;5.54;71.47;102937.09;4965652;28;20986;-64
2022/04/17 03:37:27;;;;;;;12.48;7.50;;;;;;;5.53;71.72;102930.91;4982318;28;20718;-63
2022/04/17 03:39:53;;;;;;;13.10;7.28;;;;;;;5.53;72.18;102927.44;4982800;28;20114;-63
2022/04/17 03:42:21;;;;;;;12.57;7.85;;;;;;;5.49;72.35;102930.91;4982520;28;20041;-64
2022/04/17 03:44:47;;;;;;;12.98;7.22;;;;;;;5.41;73.46;102934.31;4982345;28;20061;-64
2022/04/17 03:47:12;;;;;;;12.45;7.25;;;;;;;5.40;72.95;102926.44;4982058;28;20485;-65
2022/04/17 03:49:38;;;;;;;12.25;7.30;;;;;;;5.38;73.24;102930.75;4982771;28;20031;-64
2022/04/17 03:52:04;;;;;;;11.68;7.15;;;;;;;5.39;72.60;102924.66;4965626;28;20393;-65
2022/04/17 03:54:30;;;;;;;13.90;7.32;;;;;;;5.42;72.68;102935.19;4982114;28;20038;-63
2022/04/17 03:56:55;;;;;;;13.27;6.82;;;;;;;5.47;72.07;102919.47;4982123;28;20552;-63
2022/04/17 03:59:21;;;;;;;13.30;6.90;;;;;;;5.54;72.09;102918.69;4976067;28;20261;-62
2022/04/17 04:01:46;;;;;;;11.30;6.95;;;;;;;5.54;70.89;102918.69;4965779;28;20038;-64
2022/04/17 04:04:12;;;;;;;11.32;7.20;;;;;;;5.52;70.65;102923.03;4982302;28;21954;-63
2022/04/17 04:06:38;;;;;;;9.80;7.05;;;;;;;5.53;71.42;102911.66;4965355;28;21313;-63
2022/04/17 04:09:03;;;;;;;13.20;7.28;;;;;;;5.51;70.52;102916.91;4982178;28;20057;-64
2022/04/17 04:11:28;;;;;;;12.32;7.05;;;;;;;5.50;71.71;102920.41;4948935;28;20030;-64
2022/04/17 04:13:54;;;;;;;12.95;8.00;;;;;;;5.48;71.67;102911.59;4957600;28;20398;-64
2022/04/17 04:16:19;;;;;;;13.32;7.95;;;;;;;5.44;72.30;102906.31;4958999;28;20070;-64
2022/04/17 04:18:45;;;;;;;9.85;6.78;;;;;;;5.41;72.31;102902.78;4948359;28;20057;-64
2022/04/17 04:21:10;;;;;;;12.25;8.00;;;;;;;5.38;72.65;102900.13;4967795;28;20062;-65
2022/04/17 04:23:36;;;;;;;13.50;7.75;;;;;;;5.37;73.15;102903.63;4968223;28;20108;-63
2022/04/17 04:26:03;;;;;;;12.77;7.38;;;;;;;5.35;72.70;102907.09;4985628;28;20027;-64
2022/04/17 04:28:33;;;;;;;12.48;7.63;;;;;;;5.33;72.65;102904.47;4985285;28;20036;-64
2022/04/17 04:31:02;;;;;;;10.43;6.75;;;;;;;5.30;72.12;102901.78;4985951;28;20034;-65
2022/04/17 04:33:29;;;;;;;10.57;7.10;;;;;;;5.28;72.58;102895.66;4986215;28;20022;-63
2022/04/17 04:35:54;;;;;;;13.75;7.72;;;;;;;5.33;71.60;102888.72;4968658;28;20837;-64
2022/04/17 04:38:20;;;;;;;11.00;7.20;;;;;;;5.33;71.22;102893.06;4967732;28;20034;-64
2022/04/17 04:40:45;;;;;;;12.40;7.38;;;;;;;5.34;71.32;102887.81;4983716;28;20560;-64
2022/04/17 04:43:12;;;;;;;11.35;7.22;;;;;;;5.35;71.43;102888.72;4980534;28;20085;-64
2022/04/17 04:51:05;;;;;;;12.07;7.40;;;;;;;5.38;69.99;102887.00;4983056;28;20045;-64
2022/04/17 04:53:32;;;;;;;10.75;7.30;;;;;;;5.34;70.72;102895.69;4982357;28;20035;-65
2022/04/17 04:55:57;;;;;;;11.40;7.22;;;;;;;5.32;70.75;102889.56;4982421;28;20137;-64
2022/04/17 04:58:22;;;;;;;14.32;7.75;;;;;;;5.32;70.94;102886.94;4963786;28;20458;-64
2022/04/17 05:00:48;;;;;;;12.15;7.22;;;;;;;5.32;71.24;102884.31;4961455;28;20563;-64
2022/04/17 05:03:13;;;;;;;10.55;7.47;;;;;;;5.25;71.13;102887.72;4980410;28;20034;-64
2022/04/17 05:05:38;;;;;;;13.02;8.13;;;;;;;5.21;71.73;102894.69;4985947;28;20081;-65
2022/04/17 05:08:04;;;;;;;11.60;8.27;;;;;;;5.20;71.91;102892.06;4971537;28;20026;-65
2022/04/17 05:10:29;;;;;;;10.45;7.13;;;;;;;5.17;71.88;102887.66;4988368;28;20034;-64
2022/04/17 05:12:55;;;;;;;12.40;7.85;;;;;;;5.17;72.74;102897.28;4989587;28;20042;-65
2022/04/17 05:15:21;;;;;;;11.57;7.47;;;;;;;5.19;72.73;102890.28;4988867;28;20116;-65
2022/04/17 05:17:47;;;;;;;12.52;7.43;;;;;;;5.27;72.44;102893.00;4989331;28;20038;-64
2022/04/17 05:20:15;;;;;;;13.10;7.75;;;;;;;5.24;72.37;102891.22;4956433;28;20038;-64
2022/04/17 05:22:40;;;;;;;11.60;7.65;;;;;;;5.25;72.72;102898.22;4988322;28;20040;-64
2022/04/17 05:25:06;;;;;;;11.77;7.75;;;;;;;5.27;72.95;102900.88;4989497;28;20394;-64
2022/04/17 05:27:32;;;;;;;11.60;8.00;;;;;;;5.24;73.45;102892.13;4972615;28;20117;-65
2022/04/17 05:29:57;;;;;;;12.70;7.70;;;;;;;5.32;72.88;102899.16;4955366;28;20026;-65
2022/04/17 05:32:23;;;;;;;12.27;7.85;;;;;;;5.38;72.92;102901.88;4973055;28;20482;-65
2022/04/17 05:34:48;;;;;;;12.70;7.45;;;;;;;5.35;73.76;102897.47;4988458;28;20038;-65
2022/04/17 05:37:13;;;;;;;14.32;7.68;;;;;;;5.44;72.12;102901.06;4973483;28;20033;-63
2022/04/17 05:39:39;;;;;;;13.38;7.82;;;;;;;5.53;72.32;102888.88;4970239;28;21801;-64
2022/04/17 05:42:05;;;;;;;11.45;7.30;;;;;;;5.57;72.07;102893.28;4972184;28;20077;-65
2022/04/17 05:44:30;;;;;;;12.57;7.93;;;;;;;5.63;70.08;102895.09;4988050;28;20061;-63
2022/04/17 05:46:56;;;;;;;11.40;7.60;;;;;;;5.72;68.25;102889.06;4972230;28;20030;-65
2022/04/17 05:49:22;;;;;;;16.30;7.63;;;;;;;5.78;67.00;102893.47;4966941;28;20048;-65
2022/04/17 05:51:47;;;;;;;11.88;7.55;;;;;;;5.85;67.60;102900.53;4972245;28;20054;-64
2022/04/17 05:54:13;;;;;;;11.25;7.25;;;;;;;5.91;66.90;102903.22;4943980;28;20477;-64
2022/04/17 05:56:38;;;;;;;12.40;7.43;;;;;;;5.95;67.18;102893.63;4987922;28;20509;-64
2022/04/17 05:59:07;;;;;;;10.18;7.30;;;;;;;5.99;66.33;102900.69;4986408;28;20596;-64
2022/04/17 06:01:32;;;;;;;14.15;7.60;;;;;;;6.07;65.82;102904.25;4949569;28;20109;-64
2022/04/17 06:03:58;;;;;;;12.55;7.80;;;;;;;6.12;67.06;102902.53;4986776;28;20034;-65
2022/04/17 06:06:23;;;;;;;13.40;7.38;;;;;;;6.16;66.84;102903.44;4970534;28;20030;-64
2022/04/17 06:08:49;;;;;;;11.98;6.93;;;;;;;6.22;64.73;102899.09;4990208;28;20064;-63
2022/04/17 06:11:14;;;;;;;11.38;7.55;;;;;;;6.28;65.13;102894.72;4977120;28;20394;-63
2022/04/17 06:13:40;;;;;;;12.57;7.18;;;;;;;6.29;64.38;102897.41;4982853;28;20390;-64
2022/04/17 06:16:06;;;;;;;10.32;7.15;;;;;;;6.38;63.52;102893.91;4965150;28;20046;-65
2022/04/17 06:18:32;;;;;;;11.75;7.30;;;;;;;6.46;62.95;102901.84;4993547;28;20023;-64
2022/04/17 06:20:57;;;;;;;11.50;7.32;;;;;;;6.49;64.25;102900.13;4989041;28;20026;-64
2022/04/17 06:23:22;;;;;;;12.82;7.22;;;;;;;6.53;63.89;102896.66;4979165;28;20499;-64
2022/04/17 06:25:48;;;;;;;10.80;6.85;;;;;;;6.59;63.84;102901.06;4950680;28;20564;-64
2022/04/17 06:28:13;;;;;;;11.52;7.18;;;;;;;6.69;63.53;102902.88;5001265;28;20038;-64
2022/04/17 06:30:39;;;;;;;11.38;7.10;;;;;;;6.77;63.63;102895.00;4974777;28;20168;-64
2022/04/17 06:33:04;;;;;;;14.27;7.22;;;;;;;6.83;63.83;102902.94;4975830;28;20061;-64
2022/04/17 06:35:30;;;;;;;11.07;6.20;;;;;;;6.91;62.49;102897.69;4973488;28;20038;-65
2022/04/17 06:37:58;;;;;;;10.68;7.13;;;;;;;6.94;62.80;102894.19;4990659;28;20045;-63
2022/04/17 06:40:28;;;;;;;9.57;6.90;;;;;;;6.98;63.10;102881.03;4981783;28;20429;-64
2022/04/17 06:42:56;;;;;;;9.98;6.45;;;;;;;7.03;62.14;102889.84;4989720;28;20575;-65
2022/04/17 06:45:22;;;;;;;9.35;6.57;;;;;;;7.05;62.05;102888.06;4987117;28;20270;-65
2022/04/17 06:47:48;;;;;;;11.40;6.68;;;;;;;7.15;62.15;102888.13;4968278;28;20045;-64
2022/04/17 06:50:15;;;;;;;11.10;6.85;;;;;;;7.21;62.32;102886.38;4989486;28;20042;-64
2022/04/17 06:52:40;;;;;;;9.80;6.13;;;;;;;7.27;61.39;102888.13;4984184;28;20386;-64
2022/04/17 06:55:08;;;;;;;10.57;6.68;;;;;;;7.32;60.87;102882.88;4970431;28;20042;-65
2022/04/17 06:57:34;;;;;;;9.43;6.45;;;;;;;7.37;61.53;102884.63;4987121;28;20050;-64
2022/04/17 07:00:09;;;;;;;11.73;7.07;;;;;;;7.44;60.66;102893.41;4971919;28;20050;-64
2022/04/17 07:02:37;;;;;;;10.18;6.28;;;;;;;7.49;60.57;102886.41;4990756;28;20075;-64
2022/04/17 07:05:03;;;;;;;9.32;6.50;;;;;;;7.51;61.15;102874.09;5001057;28;20030;-64
2022/04/17 07:07:29;;;;;;;9.25;6.70;;;;;;;7.62;61.01;102878.50;4968401;28;20042;-64
2022/04/17 07:09:54;;;;;;;8.45;6.00;;;;;;;7.68;59.10;102879.38;4987619;28;20116;-64
2022/04/17 07:12:21;;;;;;;9.18;6.18;;;;;;;7.81;60.18;102887.28;4961704;28;20404;-64
2022/04/17 07:14:47;;;;;;;9.88;6.40;;;;;;;7.88;59.50;102876.72;4985611;28;20030;-65
2022/04/17 07:17:13;;;;;;;11.75;6.35;;;;;;;7.95;59.78;102876.72;4997159;28;20447;-65
2022/04/17 07:19:38;;;;;;;11.35;6.18;;;;;;;8.01;57.89;102885.50;4990231;28;20104;-65
2022/04/17 07:22:04;;;;;;;10.43;6.45;;;;;;;8.02;57.80;102873.22;4983499;28;20029;-65
2022/04/17 07:24:29;;;;;;;9.35;6.10;;;;;;;8.08;59.75;102873.22;4992521;28;20061;-65
2022/04/17 07:26:56;;;;;;;11.60;6.15;;;;;;;8.18;59.46;102879.31;4974829;28;20458;-65
2022/04/17 07:29:24;;;;;;;9.68;6.00;;;;;;;8.24;57.83;102881.97;4949886;28;20041;-65
2022/04/17 07:31:53;;;;;;;11.00;6.20;;;;;;;8.34;59.40;102874.91;4970602;28;20085;-64
2022/04/17 07:34:21;;;;;;;9.43;5.90;;;;;;;8.41;58.95;102871.34;4997775;28;20035;-65
2022/04/17 07:36:47;;;;;;;10.50;5.65;;;;;;;8.50;57.69;102873.13;4991175;28;20065;-65
2022/04/17 07:39:17;;;;;;;10.93;6.30;;;;;;;8.61;59.20;102865.16;4972367;28;20058;-65
2022/04/17 07:41:43;;;;;;;9.07;5.82;;;;;;;8.71;59.28;102860.69;4995687;28;20031;-65
2022/04/17 07:44:11;;;;;;;10.65;6.22;;;;;;;8.79;59.12;102867.72;4991550;28;20034;-65
2022/04/17 07:46:39;;;;;;;11.60;5.93;;;;;;;8.87;56.77;102870.31;4981131;28;20042;-65
2022/04/17 07:49:05;;;;;;;10.07;5.68;;;;;;;8.93;57.37;102861.50;5003613;28;20477;-65
2022/04/17 07:51:32;;;;;;;8.43;5.85;;;;;;;9.05;57.61;102860.53;4994260;28;20117;-65
2022/04/17 07:53:57;;;;;;;10.40;6.30;;;;;;;9.15;55.49;102864.88;4979707;28;20544;-64
2022/04/17 07:56:23;;;;;;;11.05;5.95;;;;;;;9.18;55.61;102867.50;4996582;28;20062;-64
2022/04/17 07:58:48;;;;;;;10.35;6.25;;;;;;;9.26;56.00;102848.94;4998440;28;20145;-65
2022/04/17 08:01:15;;;;;;;10.52;6.30;;;;;;;9.35;56.26;102851.53;4995151;28;20540;-65
2022/04/17 08:06:09;;;;;;;8.18;6.00;;;;;;;9.53;55.65;102839.94;4976721;28;20042;-64
2022/04/17 08:08:36;;;;;;;8.68;5.75;;;;;;;9.63;54.61;102846.91;4968645;28;20027;-64
2022/04/17 08:11:02;;;;;;;8.07;5.60;;;;;;;9.74;55.25;102844.16;4976549;28;20046;-65
2022/04/17 08:13:27;;;;;;;8.25;5.47;;;;;;;9.83;56.29;102846.72;4976665;28;20027;-65
2022/04/17 08:15:53;;;;;;;9.50;5.80;;;;;;;9.86;53.88;102840.53;4976298;28;20474;-65
2022/04/17 08:18:18;;;;;;;8.30;5.60;;;;;;;10.00;55.63;102837.75;4980542;28;20034;-65
2022/04/17 08:20:44;;;;;;;9.13;5.70;;;;;;;10.13;55.36;102841.13;5000748;28;20031;-65
2022/04/17 08:23:09;;;;;;;8.07;5.38;;;;;;;10.23;54.43;102834.84;4991688;28;20595;-65
2022/04/17 08:25:36;;;;;;;9.00;5.80;;;;;;;10.33;53.06;102847.09;4991853;28;20109;-65
2022/04/17 08:28:02;;;;;;;9.98;5.93;;;;;;;10.42;53.70;102837.28;4993383;28;20064;-65
2022/04/17 08:30:32;;;;;;;8.40;5.43;;;;;;;10.50;54.05;102843.41;4943068;28;20035;-65
2022/04/17 08:32:59;;;;;;;10.55;5.53;;;;;;;10.67;53.16;102837.88;4976272;28;20121;-65
2022/04/17 08:35:24;;;;;;;8.25;5.50;;;;;;;10.73;51.80;102836.91;4977174;28;20540;-65
2022/04/17 08:37:50;;;;;;;9.15;5.70;;;;;;;10.87;51.41;102829.66;4976201;28;20035;-65
2022/04/17 08:40:17;;;;;;;8.20;5.63;;;;;;;10.99;51.50;102839.19;4958710;28;20367;-64
2022/04/17 08:42:44;;;;;;;7.95;5.35;;;;;;;11.08;50.56;102832.88;4997270;28;20038;-65
2022/04/17 08:45:10;;;;;;;10.23;5.80;;;;;;;11.20;50.54;102826.50;5009872;28;20037;-65
2022/04/17 08:47:38;;;;;;;8.90;5.80;;;;;;;11.24;48.55;102826.44;4958434;28;20035;-65
2022/04/17 08:50:08;;;;;;;8.40;5.45;;;;;;;11.28;47.85;102820.19;4975849;28;20031;-66
2022/04/17 08:52:34;;;;;;;9.95;5.50;;;;;;;11.39;48.67;102832.41;4975430;28;20023;-65
2022/04/17 08:55:00;;;;;;;10.68;5.13;;;;;;;11.54;49.23;102824.19;4958769;28;20031;-64
2022/04/17 08:57:26;;;;;;;7.68;4.80;;;;;;;11.66;47.56;102825.75;4988775;28;20050;-63
2022/04/17 08:59:51;;;;;;;7.78;5.32;;;;;;;11.75;48.53;102815.00;4973775;28;20035;-63
2022/04/17 09:02:18;;;;;;;7.68;5.03;;;;;;;12.00;47.50;102819.00;4969886;28;20034;-64
2022/04/17 09:04:44;;;;;;;8.07;4.75;;;;;;;12.12;45.47;102816.97;4977629;28;20054;-63
2022/04/17 09:07:11;;;;;;;10.00;5.50;;;;;;;12.22;45.20;102812.34;4992617;28;20109;-65
2022/04/17 09:09:47;;;;;;;7.35;5.10;;;;;;;12.35;44.99;102814.75;4977725;28;20033;-65
2022/04/17 09:12:18;;;;;;;6.18;4.70;;;;;;;12.49;44.50;102807.34;4978407;28;20034;-64
2022/04/17 09:14:43;;;;;;;6.93;5.10;;;;;;;12.81;44.58;102808.44;4993619;28;20022;-64
2022/04/17 09:17:12;;;;;;;8.48;4.95;;;;;;;13.57;43.33;102807.53;4977092;28;20502;-64
2022/04/17 09:19:38;;;;;;;7.55;4.78;;;;;;;14.77;38.82;102799.75;4963924;28;20125;-64
2022/04/17 09:22:05;;;;;;;6.43;4.50;;;;;;;16.15;36.13;102798.66;5014135;28;20064;-64
2022/04/17 09:24:34;;;;;;;7.72;4.80;;;;;;;17.83;33.40;102804.38;4975804;28;20042;-64
2022/04/17 09:26:59;;;;;;;9.90;5.18;;;;;;;18.62;32.41;102786.50;4968599;28;20034;-64
2022/04/17 09:29:30;;;;;;;7.82;5.20;;;;;;;19.42;31.52;102800.53;4993445;28;20034;-65
2022/04/17 09:32:02;;;;;;;6.32;4.68;;;;;;;20.06;29.29;102790.03;4974290;28;20031;-65
2022/04/17 09:34:28;;;;;;;8.27;5.03;;;;;;;20.43;30.06;102785.31;4976201;28;20081;-65
2022/04/17 09:36:58;;;;;;;7.97;5.07;;;;;;;20.85;28.36;102778.47;4957741;28;20038;-64
2022/04/17 09:39:29;;;;;;;6.40;5.22;;;;;;;21.27;27.68;102782.31;4975088;28;20430;-64
2022/04/17 09:41:58;;;;;;;8.48;4.95;;;;;;;21.42;28.32;102775.13;4974786;28;20031;-66
2022/04/17 09:44:46;;;;;;;7.05;4.97;;;;;;;21.65;28.24;102774.72;4975295;28;20063;-64
2022/04/17 09:47:14;;;;;;;8.30;4.60;;;;;;;21.88;27.16;102771.47;4958293;28;20023;-64
2022/04/17 09:50:06;;;;;;;8.18;5.05;;;;;;;21.41;27.41;102765.31;4989918;28;20034;-65
2022/04/17 09:52:43;;;;;;;7.97;4.80;;;;;;;21.45;28.30;102774.09;4974396;28;20394;-65
2022/04/17 09:55:10;;;;;;;6.80;5.15;;;;;;;21.45;29.07;102760.59;4976621;28;20137;-63
2022/04/17 09:57:37;;;;;;;7.40;4.50;;;;;;;21.70;27.65;102754.63;4993666;28;20049;-64
2022/04/17 10:00:18;;;;;;;7.00;5.10;;;;;;;22.19;28.37;102756.03;4993703;28;20034;-64
2022/04/17 10:02:45;;;;;;;7.38;5.05;;;;;;;22.39;26.17;102748.50;4980624;28;20097;-65
2022/04/17 10:05:14;;;;;;;7.38;5.28;;;;;;;22.49;27.28;102746.94;4975478;28;20030;-65
2022/04/17 10:07:41;;;;;;;10.85;5.45;;;;;;;22.83;27.07;102752.81;4993710;28;20057;-64
2022/04/17 10:10:08;;;;;;;6.85;5.13;;;;;;;22.69;27.19;102742.94;4992234;28;20031;-64
2022/04/17 10:12:34;;;;;;;8.10;5.10;;;;;;;22.92;27.32;102740.53;4982453;28;20101;-63
2022/04/17 10:15:04;;;;;;;6.18;4.80;;;;;;;23.20;26.65;102741.41;4993898;28;20018;-64
2022/04/17 10:17:30;;;;;;;7.75;4.78;;;;;;;23.27;25.82;102736.44;4994573;28;20026;-64
2022/04/17 10:20:16;;;;;;;7.50;4.72;;;;;;;23.47;26.22;102730.50;5004441;28;20037;-65
2022/04/17 10:22:43;;;;;;;8.15;5.00;;;;;;;23.19;26.46;102729.72;5002046;28;20045;-65
2022/04/17 10:25:10;;;;;;;8.27;5.25;;;;;;;23.44;26.28;102728.03;5001544;28;20033;-65
2022/04/17 10:27:35;;;;;;;8.05;5.03;;;;;;;23.57;26.05;102719.91;4990072;28;20045;-64
2022/04/17 10:30:05;;;;;;;8.30;4.80;;;;;;;23.47;26.35;102721.53;4995898;28;20097;-64
2022/04/17 10:33:03;;;;;;;6.55;4.97;;;;;;;23.39;24.86;102716.66;4999042;28;20278;-64
2022/04/17 10:36:22;;;;;;;7.53;4.88;;;;;;;22.88;25.32;102714.72;4974104;28;20363;-64
2022/04/17 10:39:32;;;;;;;7.40;4.97;;;;;;;23.21;24.96;102705.28;5089502;28;20126;-65
2022/04/17 10:41:58;;;;;;;9.45;4.88;;;;;;;23.43;25.97;102709.19;5054596;28;20047;-64
2022/04/17 10:44:31;;;;;;;6.60;4.50;;;;;;;23.27;23.95;102704.84;5088908;28;20029;-65
2022/04/17 10:46:57;;;;;;;7.07;4.72;;;;;;;23.20;25.03;102698.16;5086456;28;20032;-64
2022/04/17 10:49:27;;;;;;;7.15;4.93;;;;;;;23.53;25.41;102688.63;5084821;28;20167;-64
2022/04/17 10:51:58;;;;;;;8.68;4.35;;;;;;;23.47;23.97;102687.25;5081370;28;20024;-64
2022/04/17 10:54:25;;;;;;;8.50;3.95;;;;;;;23.74;23.95;102694.34;5088836;28;20499;-63
2022/04/17 10:56:53;;;;;;;8.35;4.32;;;;;;;24.34;22.37;102681.03;5088877;28;20070;-66
2022/04/17 10:59:27;;;;;;;6.63;4.20;;;;;;;24.30;22.78;102674.13;5088843;28;20032;-64
2022/04/17 11:02:04;;;;;;;5.75;4.10;;;;;;;24.18;23.33;102665.06;5089036;28;20047;-64
2022/04/17 11:04:50;;;;;;;7.32;4.38;;;;;;;24.39;22.15;102665.31;5088893;28;20032;-64
2022/04/17 11:07:15;;;;;;;8.48;4.40;;;;;;;24.25;23.27;102662.78;5087575;28;20013;-64
2022/04/17 11:09:44;;;;;;;5.93;4.40;;;;;;;23.83;23.79;102663.06;5087390;28;20028;-64
2022/04/17 11:12:18;;;;;;;8.90;4.00;;;;;;;24.16;22.59;102657.06;5087510;28;20020;-64
2022/04/17 11:15:02;;;;;;;7.18;4.07;;;;;;;24.34;22.93;102645.84;5088582;28;20032;-64
2022/04/17 11:17:29;;;;;;;7.85;4.43;;;;;;;24.59;22.50;102643.97;5087533;28;20024;-64
2022/04/17 11:19:56;;;;;;;7.32;4.15;;;;;;;24.52;21.99;102646.28;5088525;28;20036;-64
2022/04/17 11:22:27;;;;;;;5.78;4.43;;;;;;;24.73;21.67;102637.53;5088231;28;20036;-64
2022/04/17 11:24:55;;;;;;;5.25;3.88;;;;;;;24.59;21.91;102642.16;5088479;28;20506;-64
2022/04/17 11:27:40;;;;;;;5.97;4.40;;;;;;;24.53;22.95;102632.63;5087187;28;20029;-64
2022/04/17 11:30:07;;;;;;;7.38;4.30;;;;;;;24.52;23.15;102628.19;5088411;28;20473;-63
2022/04/17 11:32:32;;;;;;;8.65;4.55;;;;;;;25.03;22.81;102627.00;5069873;28;20024;-64
2022/04/17 11:35:03;;;;;;;7.13;4.23;;;;;;;25.21;23.14;102626.53;5087043;28;20034;-65
2022/04/17 11:37:30;;;;;;;5.67;4.10;;;;;;;25.73;21.89;102617.94;5087956;28;20321;-63
2022/04/17 11:40:00;;;;;;;8.30;4.50;;;;;;;25.30;21.10;102612.25;5088310;28;20024;-63